createdAt,value
2023-03-11T00:00:32.139Z,9.90
2023-03-11T00:03:01.441Z,8.80
2023-03-11T00:05:35.102Z,7.03
2023-03-11T00:08:03.042Z,11.18
2023-03-11T00:10:35.592Z,7.43
2023-03-11T00:13:03.469Z,9.45
2023-03-11T00:15:30.718Z,8.43
2023-03-11T00:17:57.930Z,5.85
2023-03-11T00:20:36.508Z,8.00
2023-03-11T00:23:04.890Z,8.90
2023-03-11T00:25:32.846Z,9.00
2023-03-11T00:27:59.888Z,6.57
2023-03-11T00:30:27.744Z,14.73
2023-03-11T00:32:56.535Z,3.67
2023-03-11T00:35:26.759Z,6.95
2023-03-11T00:37:56.045Z,7.00
2023-03-11T00:40:25.497Z,5.82
2023-03-11T00:42:52.780Z,6.90
2023-03-11T00:45:21.045Z,4.55
2023-03-11T00:47:47.802Z,11.10
2023-03-11T00:50:18.161Z,6.35
2023-03-11T00:52:46.741Z,3.30
2023-03-11T00:55:15.719Z,5.63
2023-03-11T00:57:43.023Z,6.80
2023-03-11T01:00:17.148Z,4.50
2023-03-11T01:02:44.186Z,3.13
2023-03-11T01:05:11.326Z,3.15
2023-03-11T01:07:38.044Z,2.13
2023-03-11T01:10:06.670Z,4.25
2023-03-11T01:12:33.393Z,3.10
2023-03-11T01:15:00.854Z,3.53
2023-03-11T01:17:27.643Z,2.78
2023-03-11T01:19:54.314Z,8.32
2023-03-11T01:22:20.997Z,5.72
2023-03-11T01:24:47.696Z,2.75
2023-03-11T01:27:14.349Z,3.17
2023-03-11T01:29:40.952Z,2.38
2023-03-11T01:32:07.774Z,2.78
2023-03-11T01:34:36.046Z,6.40
2023-03-11T01:37:05.634Z,3.53
2023-03-11T01:39:32.228Z,5.15
2023-03-11T01:41:58.878Z,4.13
2023-03-11T01:44:25.704Z,6.35
2023-03-11T01:46:52.410Z,4.82
2023-03-11T01:49:20.386Z,4.40
2023-03-11T01:51:51.960Z,3.95
2023-03-11T01:54:23.598Z,6.00
2023-03-11T01:56:51.455Z,1.23
2023-03-11T01:59:22.282Z,3.78
2023-03-11T02:02:23.460Z,3.13
2023-03-11T02:04:51.197Z,3.58
2023-03-11T02:07:18.140Z,4.18
2023-03-11T02:09:44.907Z,8.07
2023-03-11T02:12:14.480Z,1.60
2023-03-11T02:14:44.981Z,5.15
2023-03-11T02:17:13.289Z,6.45
2023-03-11T02:19:59.121Z,2.72
2023-03-11T02:22:28.330Z,1.63
2023-03-11T02:25:31.383Z,3.83
2023-03-11T02:27:59.661Z,5.85
2023-03-11T02:30:27.748Z,4.60
2023-03-11T02:32:55.991Z,2.20
2023-03-11T02:35:23.077Z,2.25
2023-03-11T02:37:52.211Z,3.92
2023-03-11T02:40:25.779Z,3.00
2023-03-11T02:42:56.144Z,5.05
2023-03-11T02:45:25.431Z,3.55
2023-03-11T02:47:56.807Z,5.13
2023-03-11T02:50:25.555Z,1.48
2023-03-11T02:52:52.535Z,2.90
2023-03-11T02:55:20.590Z,4.57
2023-03-11T02:57:48.330Z,5.10
2023-03-11T03:00:17.804Z,3.17
2023-03-11T03:02:45.849Z,4.00
2023-03-11T03:05:13.481Z,2.47
2023-03-11T03:07:40.322Z,5.13
2023-03-11T03:10:08.631Z,2.20
2023-03-11T03:12:35.249Z,2.50
2023-03-11T03:15:01.905Z,2.42
2023-03-11T03:17:28.623Z,3.55
2023-03-11T03:19:55.295Z,5.28
2023-03-11T03:22:21.977Z,4.35
2023-03-11T03:24:48.637Z,4.60
2023-03-11T03:27:15.288Z,2.42
2023-03-11T03:29:41.900Z,2.75
2023-03-11T03:32:08.657Z,4.60
2023-03-11T03:34:35.350Z,4.50
2023-03-11T03:37:01.941Z,4.32
2023-03-11T03:39:30.587Z,1.50
2023-03-11T03:41:57.417Z,4.55
2023-03-11T03:44:24.183Z,4.60
2023-03-11T03:46:50.868Z,2.90
2023-03-11T03:49:17.547Z,6.72
2023-03-11T03:51:44.174Z,5.38
2023-03-11T03:54:10.830Z,1.27
2023-03-11T03:56:37.479Z,2.42
2023-03-11T03:59:04.207Z,4.90
2023-03-11T04:01:30.897Z,2.70
2023-03-11T04:03:57.532Z,2.40
2023-03-11T04:06:26.868Z,5.10
2023-03-11T04:08:54.545Z,5.07
2023-03-11T04:11:21.817Z,3.05
2023-03-11T04:13:48.857Z,3.60
2023-03-11T04:16:23.733Z,4.32
2023-03-11T04:18:50.801Z,2.83
2023-03-11T04:21:17.451Z,2.88
2023-03-11T04:23:44.378Z,4.85
2023-03-11T04:26:11.080Z,3.55
2023-03-11T04:28:37.687Z,5.43
2023-03-11T04:31:04.544Z,4.07
2023-03-11T04:33:31.415Z,2.15
2023-03-11T04:35:58.649Z,3.40
2023-03-11T04:38:25.533Z,5.57
2023-03-11T04:40:52.199Z,1.45
2023-03-11T04:43:18.835Z,4.68
2023-03-11T04:45:45.497Z,4.22
2023-03-11T04:48:12.108Z,5.90
2023-03-11T04:50:38.758Z,4.15
2023-03-11T04:53:05.517Z,5.97
2023-03-11T04:55:33.328Z,2.97
2023-03-11T04:58:00.102Z,3.72
2023-03-11T05:00:27.015Z,3.00
2023-03-11T05:02:53.797Z,4.28
2023-03-11T05:05:20.612Z,1.83
2023-03-11T05:07:47.985Z,5.38
2023-03-11T05:10:15.265Z,2.58
2023-03-11T05:12:41.953Z,3.90
2023-03-11T05:15:08.742Z,1.98
2023-03-11T05:17:35.390Z,2.67
2023-03-11T05:20:02.101Z,3.72
2023-03-11T05:22:28.772Z,8.80
2023-03-11T05:24:55.383Z,4.10
2023-03-11T05:27:21.987Z,4.78
2023-03-11T05:29:48.587Z,2.33
2023-03-11T05:32:15.460Z,4.25
2023-03-11T05:34:42.364Z,3.65
2023-03-11T05:37:09.280Z,3.17
2023-03-11T05:39:37.725Z,3.10
2023-03-11T05:42:05.737Z,4.53
2023-03-11T05:44:33.548Z,3.83
2023-03-11T05:47:00.865Z,3.72
2023-03-11T05:49:27.802Z,1.15
2023-03-11T05:51:56.183Z,2.40
2023-03-11T05:54:24.781Z,4.40
2023-03-11T05:56:51.383Z,3.72
2023-03-11T05:59:18.174Z,4.97
2023-03-11T06:01:45.125Z,2.92
2023-03-11T06:04:12.430Z,2.85
2023-03-11T06:06:41.136Z,5.18
2023-03-11T06:09:11.286Z,2.85
2023-03-11T06:11:38.088Z,6.28
2023-03-11T06:14:04.888Z,3.05
2023-03-11T06:16:31.559Z,1.83
2023-03-11T06:19:00.614Z,4.78
2023-03-11T06:21:27.280Z,1.45
2023-03-11T06:23:53.932Z,2.47
2023-03-11T06:26:21.866Z,5.72
2023-03-11T06:28:49.683Z,3.13
2023-03-11T06:31:22.761Z,3.50
2023-03-11T06:33:49.474Z,5.35
2023-03-11T06:36:17.608Z,5.45
2023-03-11T06:38:46.086Z,9.98
2023-03-11T06:41:13.214Z,7.32
2023-03-11T06:43:39.970Z,4.85
2023-03-11T06:46:12.328Z,3.72
2023-03-11T06:48:39.195Z,2.22
2023-03-11T06:51:05.897Z,4.28
2023-03-11T06:53:32.907Z,4.82
2023-03-11T06:56:07.839Z,3.97
2023-03-11T06:58:36.595Z,4.70
2023-03-11T07:01:15.026Z,3.05
2023-03-11T07:03:43.068Z,3.85
2023-03-11T07:06:24.537Z,6.20
2023-03-11T07:08:52.861Z,5.10
2023-03-11T07:11:23.547Z,4.38
2023-03-11T07:13:50.836Z,4.15
2023-03-11T07:16:20.666Z,3.05
2023-03-11T07:18:48.881Z,1.92
2023-03-11T07:21:17.803Z,3.63
2023-03-11T07:23:44.848Z,1.80
2023-03-11T07:26:13.786Z,3.40
2023-03-11T07:28:41.758Z,6.80
2023-03-11T07:31:14.284Z,3.50
2023-03-11T07:33:41.220Z,6.18
2023-03-11T07:36:10.468Z,5.35
2023-03-11T07:38:37.960Z,2.28
2023-03-11T07:41:04.818Z,3.75
2023-03-11T07:43:31.808Z,3.97
2023-03-11T07:46:07.736Z,5.57
2023-03-11T07:48:35.104Z,2.97
2023-03-11T07:51:03.426Z,3.67
2023-03-11T07:53:30.121Z,3.28
2023-03-11T07:55:58.762Z,2.50
2023-03-11T07:58:26.268Z,6.50
2023-03-11T08:00:54.534Z,3.38
2023-03-11T08:03:21.279Z,3.85
2023-03-11T08:05:47.971Z,3.58
2023-03-11T08:08:14.627Z,6.60
2023-03-11T08:10:41.355Z,5.20
2023-03-11T08:13:08.022Z,2.65
2023-03-11T08:15:34.695Z,4.57
2023-03-11T08:18:01.479Z,2.88
2023-03-11T08:20:28.218Z,3.88
2023-03-11T08:22:58.401Z,3.13
2023-03-11T08:25:25.526Z,2.40
2023-03-11T08:27:52.244Z,5.93
2023-03-11T08:30:19.040Z,3.25
2023-03-11T08:32:45.650Z,7.65
2023-03-11T08:35:12.377Z,3.60
2023-03-11T08:37:39.186Z,8.07
2023-03-11T08:40:06.369Z,5.85
2023-03-11T08:42:33.045Z,3.70
2023-03-11T08:44:59.696Z,3.97
2023-03-11T08:47:26.464Z,4.85
2023-03-11T08:49:53.113Z,7.05
2023-03-11T08:52:19.771Z,5.68
2023-03-11T08:54:46.368Z,5.13
2023-03-11T08:57:13.072Z,1.73
2023-03-11T08:59:39.749Z,3.45
2023-03-11T09:02:06.342Z,4.50
2023-03-11T09:04:32.994Z,3.72
2023-03-11T09:06:59.625Z,4.68
2023-03-11T09:09:26.274Z,4.80
2023-03-11T09:11:52.872Z,4.90
2023-03-11T09:14:19.599Z,4.28
2023-03-11T09:16:46.295Z,3.83
2023-03-11T09:19:12.949Z,5.22
2023-03-11T09:21:39.738Z,6.80
2023-03-11T09:24:07.262Z,4.15
2023-03-11T09:26:34.001Z,4.72
2023-03-11T09:29:00.623Z,5.68
2023-03-11T09:31:27.277Z,4.43
2023-03-11T09:33:55.541Z,4.22
2023-03-11T09:36:23.048Z,4.65
2023-03-11T09:38:49.749Z,4.88
2023-03-11T09:41:57.113Z,7.93
2023-03-11T09:44:45.990Z,4.55
2023-03-11T09:47:40.065Z,2.60
2023-03-11T09:50:18.229Z,10.15
2023-03-11T09:52:55.507Z,2.92
2023-03-11T09:55:34.494Z,4.15
2023-03-11T09:58:07.133Z,1.75
2023-03-11T10:00:34.000Z,6.15
2023-03-11T10:03:02.216Z,4.68
2023-03-11T10:05:30.193Z,2.72
2023-03-11T10:08:04.969Z,4.55
2023-03-11T10:10:40.482Z,3.63
2023-03-11T10:13:13.375Z,6.35
2023-03-11T10:16:00.032Z,4.90
2023-03-11T10:18:32.763Z,2.38
2023-03-11T10:21:17.679Z,6.60
2023-03-11T10:24:14.359Z,5.80
2023-03-11T10:26:51.770Z,0.98
2023-03-11T10:29:18.799Z,4.35
2023-03-11T10:32:02.412Z,2.70
2023-03-11T10:34:32.929Z,4.15
2023-03-11T10:37:04.915Z,2.83
2023-03-11T10:39:33.013Z,9.18
2023-03-11T10:42:05.551Z,6.32
2023-03-11T10:44:40.350Z,6.45
2023-03-11T10:47:15.516Z,3.20
2023-03-11T10:49:42.191Z,2.40
2023-03-11T10:52:08.880Z,5.68
2023-03-11T10:54:46.228Z,8.52
2023-03-11T10:57:25.601Z,5.38
2023-03-11T10:59:57.209Z,6.40
2023-03-11T11:02:28.517Z,2.38
2023-03-11T11:05:23.118Z,4.93
2023-03-11T11:07:53.112Z,3.78
2023-03-11T11:10:24.947Z,3.72
2023-03-11T11:13:03.871Z,3.45
2023-03-11T11:15:39.736Z,1.75
2023-03-11T11:18:21.873Z,6.60
2023-03-11T11:21:00.914Z,4.60
2023-03-11T11:23:40.340Z,2.28
2023-03-11T11:26:24.552Z,3.08
2023-03-11T11:29:07.738Z,5.78
2023-03-11T11:31:37.156Z,4.93
2023-03-11T11:34:04.135Z,4.10
2023-03-11T11:36:34.050Z,3.10
2023-03-11T11:39:05.018Z,6.20
2023-03-11T11:41:35.326Z,3.85
2023-03-11T11:44:05.974Z,2.40
2023-03-11T11:46:43.262Z,4.70
2023-03-11T11:49:22.370Z,5.20
2023-03-11T11:52:16.978Z,4.07
2023-03-11T11:54:43.610Z,9.25
2023-03-11T11:57:16.435Z,2.60
2023-03-11T11:59:44.276Z,14.20
2023-03-11T12:02:19.709Z,3.85
2023-03-11T12:05:09.733Z,2.70
2023-03-11T12:07:54.074Z,2.25
2023-03-11T12:10:28.853Z,5.05
2023-03-11T12:13:25.043Z,7.95
2023-03-11T12:16:19.709Z,3.35
2023-03-11T12:19:10.226Z,3.72
2023-03-11T12:22:03.973Z,3.33
2023-03-11T12:25:15.199Z,6.15
2023-03-11T12:27:49.973Z,4.32
2023-03-11T12:30:38.919Z,4.03
2023-03-11T12:33:11.503Z,3.42
2023-03-11T12:35:38.339Z,2.45
2023-03-11T12:38:33.217Z,2.78
2023-03-11T12:41:01.940Z,3.72
2023-03-11T12:43:48.527Z,6.05
2023-03-11T12:46:17.887Z,2.78
2023-03-11T12:48:52.204Z,2.83
2023-03-11T12:51:39.068Z,3.55
2023-03-11T12:54:33.286Z,1.75
2023-03-11T12:57:32.656Z,1.15
2023-03-11T13:00:35.153Z,3.95
2023-03-11T13:03:32.125Z,0.80
2023-03-11T13:06:19.886Z,3.53
2023-03-11T13:08:49.405Z,4.95
2023-03-11T13:11:34.410Z,3.92
2023-03-11T13:14:23.652Z,4.25
2023-03-11T13:16:50.659Z,5.88
2023-03-11T13:19:26.311Z,4.50
2023-03-11T13:21:54.455Z,3.20
2023-03-11T13:24:22.007Z,3.88
2023-03-11T13:26:50.766Z,2.33
2023-03-11T13:29:41.966Z,2.42
2023-03-11T13:32:46.304Z,2.85
2023-03-11T13:35:40.132Z,1.85
2023-03-11T13:38:22.762Z,4.18
2023-03-11T13:40:51.682Z,4.03
2023-03-11T13:43:22.705Z,6.07
2023-03-11T13:46:03.727Z,4.77
2023-03-11T13:48:40.566Z,1.58
2023-03-11T13:51:20.513Z,1.75
2023-03-11T13:54:20.074Z,2.67
2023-03-11T13:56:53.942Z,3.65
2023-03-11T13:59:24.884Z,3.42
2023-03-11T14:02:01.429Z,3.43
2023-03-11T14:04:31.607Z,3.10
2023-03-11T14:06:59.275Z,2.95
2023-03-11T14:09:28.251Z,3.63
2023-03-11T14:12:03.236Z,3.47
2023-03-11T14:15:00.733Z,1.38
2023-03-11T14:17:27.603Z,3.72
2023-03-11T14:20:12.669Z,2.15
2023-03-11T14:22:39.500Z,2.63
2023-03-11T14:25:09.921Z,2.55
2023-03-11T14:27:39.744Z,3.05
2023-03-11T14:30:06.953Z,4.18
2023-03-11T14:32:35.591Z,2.03
2023-03-11T14:35:17.106Z,1.92
2023-03-11T14:37:43.708Z,3.10
2023-03-11T14:40:32.338Z,4.32
2023-03-11T14:43:05.370Z,7.03
2023-03-11T14:45:36.283Z,2.78
2023-03-11T14:48:09.928Z,1.80
2023-03-11T14:50:36.796Z,6.03
2023-03-11T14:53:06.099Z,5.25
2023-03-11T14:55:36.314Z,3.10
2023-03-11T14:58:18.888Z,5.65
2023-03-11T15:00:51.099Z,4.15
2023-03-11T15:03:23.945Z,3.30
2023-03-11T15:06:03.092Z,4.65
2023-03-11T15:08:35.606Z,3.20
2023-03-11T15:11:03.928Z,2.97
2023-03-11T15:13:30.875Z,3.38
2023-03-11T15:15:59.194Z,2.35
2023-03-11T15:18:32.081Z,2.47
2023-03-11T15:21:12.690Z,4.43
2023-03-11T15:23:44.874Z,2.30
2023-03-11T15:26:20.298Z,3.22
2023-03-11T15:28:54.414Z,4.40
2023-03-11T15:31:21.025Z,4.40
2023-03-11T15:33:48.989Z,3.08
2023-03-11T15:36:30.723Z,3.15
2023-03-11T15:39:29.223Z,7.68
2023-03-11T15:42:05.812Z,2.45
2023-03-11T15:44:36.288Z,1.15
2023-03-11T15:47:04.195Z,5.30
2023-03-11T15:49:30.858Z,4.43
2023-03-11T15:52:01.997Z,4.63
2023-03-11T15:54:28.990Z,3.38
2023-03-11T15:56:58.527Z,1.92
2023-03-11T15:59:26.154Z,1.23
2023-03-11T16:01:52.844Z,4.20
2023-03-11T16:04:20.934Z,3.50
2023-03-11T16:06:56.647Z,8.02
2023-03-11T16:09:34.123Z,3.30
2023-03-11T16:12:02.023Z,4.85
2023-03-11T16:14:28.709Z,2.10
2023-03-11T16:16:55.441Z,2.63
2023-03-11T16:19:22.149Z,5.30
2023-03-11T16:21:50.229Z,4.88
2023-03-11T16:24:20.767Z,3.33
2023-03-11T16:26:47.521Z,2.63
2023-03-11T16:29:19.303Z,2.28
2023-03-11T16:31:46.784Z,2.05
2023-03-11T16:34:13.446Z,2.35
2023-03-11T16:36:40.192Z,4.63
2023-03-11T16:39:06.883Z,2.78
2023-03-11T16:41:44.361Z,5.22
2023-03-11T16:44:11.685Z,6.10
2023-03-11T16:46:38.623Z,4.68
2023-03-11T16:49:05.421Z,3.03
2023-03-11T16:51:32.433Z,5.07
2023-03-11T16:53:59.715Z,6.53
2023-03-11T16:56:26.411Z,3.65
2023-03-11T16:58:53.127Z,3.42
2023-03-11T17:01:21.573Z,9.73
2023-03-11T17:03:50.824Z,6.75
2023-03-11T17:06:17.872Z,2.92
2023-03-11T17:08:49.125Z,3.88
2023-03-11T17:11:18.283Z,7.18
2023-03-11T17:13:45.064Z,9.68
2023-03-11T17:16:12.162Z,5.18
2023-03-11T17:18:39.083Z,8.27
2023-03-11T17:21:10.879Z,9.40
2023-03-11T17:23:37.657Z,8.00
2023-03-11T17:26:12.355Z,3.33
2023-03-11T17:28:42.607Z,8.23
2023-03-11T17:31:14.256Z,9.82
2023-03-11T17:33:41.217Z,13.52
2023-03-11T17:36:11.139Z,20.33
2023-03-11T17:38:37.799Z,10.20
2023-03-11T17:41:09.385Z,11.30
2023-03-11T17:43:36.209Z,10.82
2023-03-11T17:46:06.410Z,9.68
2023-03-11T17:48:33.060Z,19.00
2023-03-11T17:51:05.018Z,16.25
2023-03-11T17:56:00.276Z,9.77
2023-03-11T17:58:26.961Z,8.80
2023-03-11T18:00:53.662Z,8.95
2023-03-11T18:03:20.324Z,6.50
2023-03-11T18:05:57.908Z,6.95
2023-03-11T18:08:24.957Z,9.38
2023-03-11T18:10:53.003Z,7.15
2023-03-11T18:13:20.703Z,7.72
2023-03-11T18:16:12.540Z,8.50
2023-03-11T18:18:41.640Z,9.23
2023-03-11T18:21:17.451Z,7.13
2023-03-11T18:23:44.744Z,7.40
2023-03-11T18:26:14.355Z,13.75
2023-03-11T18:28:41.757Z,14.93
2023-03-11T18:31:17.009Z,11.82
2023-03-11T18:33:48.092Z,16.55
2023-03-11T18:36:20.834Z,26.17
2023-03-11T18:38:48.982Z,40.65
2023-03-11T18:41:16.093Z,48.78
2023-03-11T18:43:42.749Z,47.75
2023-03-11T18:46:11.516Z,32.05
2023-03-11T18:48:38.636Z,16.63
2023-03-11T18:51:07.016Z,26.90
2023-03-11T18:53:34.208Z,15.90
2023-03-11T18:56:13.514Z,12.45
2023-03-11T18:58:40.179Z,13.40
2023-03-11T19:01:15.116Z,13.30
2023-03-11T19:03:43.185Z,11.57
2023-03-11T19:06:11.494Z,15.55
2023-03-11T19:08:38.570Z,9.20
2023-03-11T19:11:13.247Z,6.75
2023-03-11T19:13:46.940Z,8.25
2023-03-11T19:16:16.750Z,6.15
2023-03-11T19:18:43.941Z,5.53
2023-03-11T19:21:12.219Z,9.73
2023-03-11T19:23:38.968Z,9.05
2023-03-11T19:26:06.589Z,10.57
2023-03-11T19:28:33.309Z,12.38
2023-03-11T19:31:00.527Z,11.30
2023-03-11T19:33:27.690Z,13.38
2023-03-11T19:36:00.484Z,15.05
2023-03-11T19:38:28.786Z,13.98
2023-03-11T19:41:02.918Z,11.35
2023-03-11T19:43:29.984Z,12.73
2023-03-11T19:45:57.092Z,25.52
2023-03-11T19:48:24.503Z,21.55
2023-03-11T19:50:52.050Z,15.40
2023-03-11T19:53:20.533Z,15.38
2023-03-11T19:55:50.158Z,14.50
2023-03-11T19:58:17.227Z,20.13
2023-03-11T20:00:44.683Z,19.15
2023-03-11T20:03:12.722Z,16.73
2023-03-11T20:05:41.415Z,14.73
2023-03-11T20:08:09.646Z,18.33
2023-03-11T20:10:42.998Z,22.67
2023-03-11T20:13:10.029Z,26.55
2023-03-11T20:15:37.275Z,31.13
2023-03-11T20:18:05.571Z,21.20
2023-03-11T20:20:33.384Z,15.23
2023-03-11T20:23:01.861Z,15.60
2023-03-11T20:25:32.251Z,25.17
2023-03-11T20:27:59.827Z,71.93
2023-03-11T20:30:27.145Z,81.55
2023-03-11T20:32:54.344Z,64.90
2023-03-11T20:35:22.068Z,55.38
2023-03-11T20:37:48.867Z,25.45
2023-03-11T20:40:17.045Z,12.73
2023-03-11T20:42:46.701Z,11.77
2023-03-11T20:45:21.507Z,9.13
2023-03-11T20:47:53.669Z,8.75
2023-03-11T20:50:21.404Z,9.38
2023-03-11T20:52:48.083Z,7.10
2023-03-11T20:55:14.846Z,8.60
2023-03-11T20:57:41.764Z,9.65
2023-03-11T21:00:11.732Z,11.85
2023-03-11T21:02:43.029Z,14.13
2023-03-11T21:05:11.103Z,14.95
2023-03-11T21:07:38.460Z,14.43
2023-03-11T21:10:07.462Z,13.93
2023-03-11T21:12:34.205Z,19.90
2023-03-11T21:15:00.923Z,21.30
2023-03-11T21:17:27.649Z,20.40
2023-03-11T21:19:54.307Z,22.00
2023-03-11T21:22:21.072Z,20.85
2023-03-11T21:24:52.519Z,23.55
2023-03-11T21:27:25.750Z,22.25
2023-03-11T21:29:53.473Z,15.82
2023-03-11T21:32:20.690Z,19.38
2023-03-11T21:34:47.796Z,20.85
2023-03-11T21:37:14.947Z,15.73
2023-03-11T21:39:41.656Z,17.63
2023-03-11T21:42:08.404Z,15.30
2023-03-11T21:44:35.200Z,20.15
2023-03-11T21:47:02.001Z,24.95
2023-03-11T21:49:28.953Z,31.77
2023-03-11T21:51:55.673Z,37.42
2023-03-11T21:54:22.468Z,31.08
2023-03-11T21:56:49.280Z,19.08
2023-03-11T21:59:16.098Z,16.75
2023-03-11T22:01:43.139Z,13.98
2023-03-11T22:04:09.970Z,11.73
2023-03-11T22:06:36.854Z,12.38
2023-03-11T22:09:04.391Z,7.97
2023-03-11T22:11:31.389Z,12.40
2023-03-11T22:14:00.553Z,13.27
2023-03-11T22:16:27.608Z,13.25
2023-03-11T22:18:54.401Z,14.68
2023-03-11T22:21:21.399Z,13.07
2023-03-11T22:23:48.486Z,12.63
2023-03-11T22:26:15.871Z,7.15
2023-03-11T22:28:42.747Z,12.10
2023-03-11T22:31:12.052Z,9.35
2023-03-11T22:33:38.811Z,9.07
2023-03-11T22:36:06.334Z,7.97
2023-03-11T22:38:34.077Z,7.38
2023-03-11T22:41:00.869Z,9.40
2023-03-11T22:43:27.597Z,10.35
2023-03-11T22:45:54.400Z,9.68
2023-03-11T22:48:22.041Z,12.40
2023-03-11T22:50:48.688Z,11.27
2023-03-11T22:53:15.621Z,9.50
2023-03-11T22:55:45.395Z,10.60
2023-03-11T22:58:12.605Z,8.50
2023-03-11T23:00:39.763Z,10.30
2023-03-11T23:03:06.546Z,11.23
2023-03-11T23:05:40.619Z,15.40
2023-03-11T23:08:08.748Z,11.55
2023-03-11T23:10:35.438Z,11.98
2023-03-11T23:13:02.205Z,12.55
2023-03-11T23:15:29.114Z,14.35
2023-03-11T23:17:55.851Z,15.75
2023-03-11T23:20:22.636Z,12.35
2023-03-11T23:22:49.325Z,10.57
2023-03-11T23:25:17.249Z,13.40
2023-03-11T23:27:45.440Z,13.32
2023-03-11T23:30:15.023Z,10.07
2023-03-11T23:32:41.912Z,11.68
2023-03-11T23:35:09.012Z,11.25
2023-03-11T23:37:35.662Z,10.13
2023-03-11T23:40:02.753Z,12.48
2023-03-11T23:42:31.858Z,10.05
2023-03-11T23:44:58.603Z,10.30
2023-03-11T23:47:25.248Z,11.70
2023-03-11T23:49:51.891Z,8.82
2023-03-11T23:52:18.543Z,13.90
2023-03-11T23:54:45.160Z,9.98
2023-03-11T23:57:11.759Z,11.52
2023-03-11T23:59:38.362Z,11.55
